createdAt,value
2023-03-04T00:01:05.836Z,2.63
2023-03-04T00:03:33.063Z,2.40
2023-03-04T00:06:00.272Z,2.42
2023-03-04T00:08:29.691Z,1.65
2023-03-04T00:10:56.975Z,2.67
2023-03-04T00:13:25.007Z,2.80
2023-03-04T00:15:52.379Z,2.63
2023-03-04T00:18:21.064Z,2.17
2023-03-04T00:20:49.674Z,2.30
2023-03-04T00:23:17.928Z,2.97
2023-03-04T00:25:45.220Z,2.80
2023-03-04T00:28:12.510Z,2.92
2023-03-04T00:30:39.706Z,2.28
2023-03-04T00:33:06.891Z,3.38
2023-03-04T00:35:34.271Z,2.42
2023-03-04T00:38:01.549Z,2.30
2023-03-04T00:40:28.763Z,1.75
2023-03-04T00:42:56.022Z,2.20
2023-03-04T00:45:23.260Z,2.92
2023-03-04T00:47:50.536Z,2.97
2023-03-04T00:50:17.867Z,2.13
2023-03-04T00:52:45.140Z,2.30
2023-03-04T00:55:12.387Z,2.90
2023-03-04T00:57:39.596Z,2.22
2023-03-04T01:00:07.717Z,2.55
2023-03-04T01:02:35.403Z,3.10
2023-03-04T01:05:02.693Z,2.53
2023-03-04T01:07:29.949Z,2.28
2023-03-04T01:09:57.219Z,2.25
2023-03-04T01:12:25.087Z,1.95
2023-03-04T01:14:52.366Z,1.67
2023-03-04T01:17:19.597Z,2.38
2023-03-04T01:19:46.912Z,2.40
2023-03-04T01:22:16.595Z,2.90
2023-03-04T01:24:43.865Z,2.55
2023-03-04T01:27:11.122Z,2.80
2023-03-04T01:29:38.428Z,2.72
2023-03-04T01:32:05.887Z,3.03
2023-03-04T01:34:33.238Z,3.20
2023-03-04T01:37:00.598Z,3.05
2023-03-04T01:39:28.212Z,3.95
2023-03-04T01:41:55.519Z,2.90
2023-03-04T01:44:22.803Z,3.55
2023-03-04T01:46:54.121Z,3.55
2023-03-04T01:49:21.761Z,3.00
2023-03-04T01:51:50.687Z,2.97
2023-03-04T01:54:17.998Z,3.70
2023-03-04T01:56:47.647Z,2.47
2023-03-04T01:59:20.325Z,2.35
2023-03-04T02:01:49.758Z,2.10
2023-03-04T02:04:17.972Z,1.85
2023-03-04T02:06:46.045Z,2.22
2023-03-04T02:09:13.463Z,2.45
2023-03-04T02:11:41.072Z,2.50
2023-03-04T02:14:09.690Z,3.38
2023-03-04T02:16:36.888Z,2.60
2023-03-04T02:19:06.018Z,2.78
2023-03-04T02:21:34.291Z,3.38
2023-03-04T02:24:07.925Z,3.40
2023-03-04T02:26:35.703Z,2.80
2023-03-04T02:29:03.515Z,2.28
2023-03-04T02:31:30.805Z,2.92
2023-03-04T02:33:59.753Z,2.38
2023-03-04T02:36:28.132Z,3.53
2023-03-04T02:38:56.241Z,2.20
2023-03-04T02:41:25.463Z,3.70
2023-03-04T02:43:54.126Z,2.88
2023-03-04T02:46:21.564Z,1.83
2023-03-04T02:48:49.075Z,3.38
2023-03-04T02:51:16.387Z,2.55
2023-03-04T02:53:43.654Z,2.25
2023-03-04T02:56:12.224Z,2.60
2023-03-04T02:58:41.186Z,3.13
2023-03-04T03:01:10.564Z,4.28
2023-03-04T03:03:37.993Z,2.58
2023-03-04T03:06:05.364Z,2.47
2023-03-04T03:08:32.701Z,2.50
2023-03-04T03:11:01.644Z,3.08
2023-03-04T03:13:31.167Z,2.17
2023-03-04T03:15:58.470Z,3.10
2023-03-04T03:18:25.775Z,2.70
2023-03-04T03:20:53.006Z,1.67
2023-03-04T03:23:20.907Z,2.15
2023-03-04T03:25:48.091Z,2.80
2023-03-04T03:28:15.352Z,2.47
2023-03-04T03:30:42.501Z,1.90
2023-03-04T03:33:09.778Z,2.63
2023-03-04T03:35:38.368Z,3.15
2023-03-04T03:38:05.842Z,2.45
2023-03-04T03:40:33.305Z,2.67
2023-03-04T03:43:00.620Z,2.70
2023-03-04T03:45:27.974Z,2.25
2023-03-04T03:47:55.134Z,2.50
2023-03-04T03:50:22.402Z,2.38
2023-03-04T03:52:49.663Z,1.30
2023-03-04T03:55:17.019Z,1.70
2023-03-04T03:57:44.274Z,1.40
2023-03-04T04:00:11.845Z,1.80
2023-03-04T04:02:41.961Z,2.60
2023-03-04T04:05:09.716Z,1.85
2023-03-04T04:07:37.302Z,1.75
2023-03-04T04:10:05.248Z,2.20
2023-03-04T04:12:32.553Z,2.00
2023-03-04T04:14:59.928Z,1.33
2023-03-04T04:17:27.186Z,1.55
2023-03-04T04:19:54.438Z,1.77
2023-03-04T04:22:22.333Z,1.83
2023-03-04T04:24:49.624Z,1.63
2023-03-04T04:27:16.874Z,1.48
2023-03-04T04:29:44.131Z,0.82
2023-03-04T04:32:13.156Z,0.80
2023-03-04T04:34:40.676Z,2.13
2023-03-04T04:37:07.973Z,0.90
2023-03-04T04:39:35.439Z,1.70
2023-03-04T04:42:02.714Z,1.75
2023-03-04T04:44:30.025Z,1.08
2023-03-04T04:46:57.248Z,0.65
2023-03-04T04:49:24.470Z,2.03
2023-03-04T04:51:51.780Z,0.80
2023-03-04T04:54:18.990Z,0.93
2023-03-04T04:56:46.225Z,1.58
2023-03-04T04:59:13.482Z,1.20
2023-03-04T05:01:41.320Z,2.15
2023-03-04T05:04:08.655Z,0.80
2023-03-04T05:06:35.960Z,1.40
2023-03-04T05:09:04.292Z,0.82
2023-03-04T05:11:31.568Z,1.52
2023-03-04T05:13:58.766Z,1.58
2023-03-04T05:16:26.018Z,1.38
2023-03-04T05:18:53.252Z,2.15
2023-03-04T05:21:20.602Z,2.15
2023-03-04T05:23:48.225Z,1.48
2023-03-04T05:26:16.399Z,1.02
2023-03-04T05:28:43.899Z,1.10
2023-03-04T05:31:11.391Z,1.27
2023-03-04T05:33:38.924Z,0.70
2023-03-04T05:36:07.015Z,1.20
2023-03-04T05:38:34.264Z,1.73
2023-03-04T05:41:03.122Z,1.15
2023-03-04T05:43:30.541Z,2.17
2023-03-04T05:45:58.008Z,0.60
2023-03-04T05:48:25.370Z,1.30
2023-03-04T05:50:56.504Z,1.15
2023-03-04T05:53:24.248Z,1.80
2023-03-04T05:55:51.669Z,1.90
2023-03-04T05:58:19.370Z,2.95
2023-03-04T06:00:47.169Z,1.38
2023-03-04T06:03:15.689Z,1.92
2023-03-04T06:05:43.058Z,1.75
2023-03-04T06:08:10.851Z,1.67
2023-03-04T06:10:38.810Z,1.55
2023-03-04T06:13:06.209Z,2.05
2023-03-04T06:15:33.440Z,2.30
2023-03-04T06:18:00.617Z,2.38
2023-03-04T06:20:27.892Z,1.20
2023-03-04T06:22:55.193Z,1.23
2023-03-04T06:25:22.755Z,1.40
2023-03-04T06:27:50.886Z,1.35
2023-03-04T06:30:18.592Z,0.50
2023-03-04T06:32:47.364Z,0.93
2023-03-04T06:35:15.431Z,1.40
2023-03-04T06:37:42.950Z,0.73
2023-03-04T06:40:11.289Z,0.60
2023-03-04T06:42:40.065Z,0.90
2023-03-04T06:45:08.005Z,1.27
2023-03-04T06:47:35.238Z,1.17
2023-03-04T06:50:03.730Z,1.08
2023-03-04T06:52:31.020Z,1.10
2023-03-04T06:54:58.330Z,1.67
2023-03-04T06:57:25.729Z,0.93
2023-03-04T06:59:53.011Z,0.82
2023-03-04T07:02:20.161Z,0.75
2023-03-04T07:04:47.478Z,0.77
2023-03-04T07:07:14.791Z,0.93
2023-03-04T07:09:42.614Z,0.88
2023-03-04T07:12:09.958Z,1.33
2023-03-04T07:14:37.216Z,1.42
2023-03-04T07:17:04.489Z,1.10
2023-03-04T07:19:31.846Z,1.60
2023-03-04T07:21:59.108Z,1.30
2023-03-04T07:24:26.265Z,0.90
2023-03-04T07:26:53.585Z,0.90
2023-03-04T07:29:21.047Z,0.50
2023-03-04T07:31:48.417Z,0.77
2023-03-04T07:34:15.954Z,0.80
2023-03-04T07:36:43.749Z,1.35
2023-03-04T07:39:12.951Z,1.70
2023-03-04T07:41:40.597Z,1.10
2023-03-04T07:44:09.012Z,1.75
2023-03-04T07:46:36.362Z,2.28
2023-03-04T07:49:03.600Z,1.13
2023-03-04T07:51:31.363Z,1.02
2023-03-04T07:53:59.753Z,1.20
2023-03-04T07:56:28.702Z,1.52
2023-03-04T07:58:56.292Z,1.75
2023-03-04T08:01:27.712Z,1.33
2023-03-04T08:03:58.334Z,1.27
2023-03-04T08:06:26.891Z,1.38
2023-03-04T08:08:58.840Z,1.70
2023-03-04T08:11:26.227Z,1.17
2023-03-04T08:13:54.229Z,1.63
2023-03-04T08:16:22.654Z,1.70
2023-03-04T08:18:51.633Z,1.83
2023-03-04T08:21:19.760Z,1.50
2023-03-04T08:23:47.725Z,1.08
2023-03-04T08:26:17.242Z,1.20
2023-03-04T08:28:45.758Z,1.55
2023-03-04T08:31:17.203Z,1.02
2023-03-04T08:33:44.916Z,1.15
2023-03-04T08:36:12.181Z,1.70
2023-03-04T08:38:39.526Z,1.45
2023-03-04T08:41:06.680Z,1.25
2023-03-04T08:43:36.224Z,1.60
2023-03-04T08:46:04.488Z,1.98
2023-03-04T08:48:31.896Z,2.08
2023-03-04T08:50:59.139Z,2.00
2023-03-04T08:53:26.573Z,1.27
2023-03-04T08:55:53.846Z,2.30
2023-03-04T08:58:21.361Z,1.30
2023-03-04T09:00:51.358Z,1.40
2023-03-04T09:03:20.384Z,1.05
2023-03-04T09:05:49.215Z,1.85
2023-03-04T09:08:16.654Z,1.13
2023-03-04T09:10:44.694Z,1.25
2023-03-04T09:13:12.215Z,1.58
2023-03-04T09:15:44.272Z,1.85
2023-03-04T09:18:11.454Z,2.17
2023-03-04T09:20:38.708Z,1.05
2023-03-04T09:23:06.356Z,1.20
2023-03-04T09:25:33.680Z,3.25
2023-03-04T09:28:00.908Z,1.80
2023-03-04T09:30:29.048Z,1.77
2023-03-04T09:32:57.339Z,1.73
2023-03-04T09:35:24.629Z,1.00
2023-03-04T09:37:52.817Z,1.58
2023-03-04T09:40:22.220Z,1.38
2023-03-04T09:42:53.510Z,1.38
2023-03-04T09:45:22.499Z,1.40
2023-03-04T09:47:51.618Z,1.20
2023-03-04T09:50:19.330Z,1.15
2023-03-04T09:53:03.818Z,0.90
2023-03-04T09:55:41.142Z,1.63
2023-03-04T09:58:17.415Z,1.10
2023-03-04T10:00:52.410Z,1.10
2023-03-04T10:03:20.744Z,1.30
2023-03-04T10:05:54.370Z,0.80
2023-03-04T10:08:32.059Z,1.02
2023-03-04T10:11:00.586Z,1.30
2023-03-04T10:13:36.875Z,0.90
2023-03-04T10:16:06.178Z,0.65
2023-03-04T10:18:46.624Z,0.98
2023-03-04T10:21:16.871Z,1.10
2023-03-04T10:23:44.190Z,1.48
2023-03-04T10:26:13.987Z,1.70
2023-03-04T10:28:41.632Z,1.20
2023-03-04T10:31:08.808Z,1.35
2023-03-04T10:33:37.291Z,1.40
2023-03-04T10:36:06.333Z,1.15
2023-03-04T10:38:35.605Z,1.35
2023-03-04T10:41:12.344Z,0.90
2023-03-04T10:43:39.702Z,0.75
2023-03-04T10:46:06.959Z,1.00
2023-03-04T10:48:35.118Z,1.42
2023-03-04T10:51:19.845Z,1.30
2023-03-04T10:53:48.193Z,0.90
2023-03-04T10:56:35.921Z,1.73
2023-03-04T10:59:23.052Z,1.77
2023-03-04T11:01:51.393Z,0.60
2023-03-04T11:04:19.061Z,1.02
2023-03-04T11:06:46.312Z,1.13
2023-03-04T11:09:24.363Z,1.27
2023-03-04T11:11:52.692Z,1.38
2023-03-04T11:14:30.214Z,1.13
2023-03-04T11:16:58.963Z,1.50
2023-03-04T11:19:30.368Z,1.73
2023-03-04T11:21:58.384Z,1.42
2023-03-04T11:24:29.081Z,2.53
2023-03-04T11:26:56.624Z,1.40
2023-03-04T11:29:23.879Z,0.80
2023-03-04T11:31:56.187Z,0.93
2023-03-04T11:34:23.488Z,1.13
2023-03-04T11:36:50.799Z,1.33
2023-03-04T11:39:24.996Z,1.58
2023-03-04T11:41:59.267Z,1.23
2023-03-04T11:44:26.481Z,1.02
2023-03-04T11:47:06.202Z,0.80
2023-03-04T11:49:48.635Z,0.98
2023-03-04T11:52:21.547Z,1.33
2023-03-04T11:54:59.224Z,1.50
2023-03-04T11:57:46.493Z,0.85
2023-03-04T12:00:20.624Z,1.10
2023-03-04T12:03:02.863Z,1.80
2023-03-04T12:05:46.780Z,1.20
2023-03-04T12:08:14.065Z,1.30
2023-03-04T12:10:47.059Z,1.13
2023-03-04T12:13:24.929Z,1.48
2023-03-04T12:16:12.090Z,1.27
2023-03-04T12:19:02.941Z,1.58
2023-03-04T12:21:40.137Z,1.30
2023-03-04T12:24:13.670Z,1.20
2023-03-04T12:26:48.220Z,1.30
2023-03-04T12:29:27.771Z,1.00
2023-03-04T12:32:00.225Z,0.80
2023-03-04T12:34:31.420Z,1.98
2023-03-04T12:37:20.428Z,1.20
2023-03-04T12:40:07.989Z,1.15
2023-03-04T12:42:41.908Z,1.10
2023-03-04T12:45:23.453Z,1.65
2023-03-04T12:47:55.967Z,1.23
2023-03-04T12:50:32.736Z,1.73
2023-03-04T12:53:17.646Z,1.77
2023-03-04T12:55:48.873Z,1.38
2023-03-04T12:58:20.766Z,1.23
2023-03-04T13:00:50.694Z,1.55
2023-03-04T13:03:20.805Z,1.65
2023-03-04T13:06:06.987Z,1.48
2023-03-04T13:08:49.517Z,1.67
2023-03-04T13:11:29.337Z,1.50
2023-03-04T13:14:06.908Z,1.35
2023-03-04T13:16:51.037Z,1.20
2023-03-04T13:19:36.853Z,1.23
2023-03-04T13:22:04.313Z,1.13
2023-03-04T13:24:50.568Z,1.83
2023-03-04T13:27:36.484Z,1.00
2023-03-04T13:30:04.059Z,1.27
2023-03-04T13:32:44.220Z,1.17
2023-03-04T13:35:35.213Z,1.33
2023-03-04T13:38:04.886Z,1.15
2023-03-04T13:40:38.970Z,1.40
2023-03-04T13:43:25.923Z,1.30
2023-03-04T13:45:53.345Z,1.20
2023-03-04T13:48:36.387Z,1.27
2023-03-04T13:51:03.784Z,1.30
2023-03-04T13:53:33.989Z,1.73
2023-03-04T13:56:04.332Z,1.40
2023-03-04T13:58:31.569Z,1.67
2023-03-04T14:00:58.899Z,0.75
2023-03-04T14:03:27.531Z,0.70
2023-03-04T14:06:17.948Z,0.85
2023-03-04T14:08:45.841Z,0.88
2023-03-04T14:11:25.667Z,0.90
2023-03-04T14:13:53.172Z,0.73
2023-03-04T14:16:21.972Z,1.00
2023-03-04T14:19:06.536Z,1.10
2023-03-04T14:21:36.754Z,0.70
2023-03-04T14:24:08.794Z,0.90
2023-03-04T14:26:36.120Z,1.23
2023-03-04T14:29:03.895Z,1.00
2023-03-04T14:31:32.290Z,1.10
2023-03-04T14:34:02.149Z,0.90
2023-03-04T14:36:31.239Z,1.05
2023-03-04T14:39:01.336Z,1.48
2023-03-04T14:41:30.757Z,0.82
2023-03-04T14:44:09.942Z,1.27
2023-03-04T14:46:40.842Z,1.35
2023-03-04T14:49:11.827Z,3.97
2023-03-04T14:51:45.822Z,1.73
2023-03-04T14:54:31.962Z,2.38
2023-03-04T14:56:59.798Z,2.72
2023-03-04T14:59:34.713Z,1.25
2023-03-04T15:02:20.203Z,1.42
2023-03-04T15:04:48.504Z,1.75
2023-03-04T15:07:16.837Z,1.45
2023-03-04T15:09:50.275Z,2.33
2023-03-04T15:12:23.344Z,0.90
2023-03-04T15:14:52.233Z,2.08
2023-03-04T15:17:25.458Z,2.45
2023-03-04T15:19:59.498Z,1.48
2023-03-04T15:22:26.910Z,2.03
2023-03-04T15:24:54.176Z,2.28
2023-03-04T15:27:24.013Z,1.83
2023-03-04T15:29:56.084Z,1.42
2023-03-04T15:32:24.035Z,1.17
2023-03-04T15:34:51.331Z,1.13
2023-03-04T15:37:20.553Z,0.65
2023-03-04T15:39:47.761Z,0.95
2023-03-04T15:42:15.966Z,0.95
2023-03-04T15:44:43.278Z,1.05
2023-03-04T15:47:14.032Z,1.05
2023-03-04T15:49:43.050Z,1.08
2023-03-04T15:52:15.876Z,0.93
2023-03-04T15:54:43.163Z,1.10
2023-03-04T15:57:18.375Z,1.13
2023-03-04T15:59:45.668Z,1.02
2023-03-04T16:02:19.630Z,1.48
2023-03-04T16:04:46.841Z,0.57
2023-03-04T16:07:23.035Z,1.20
2023-03-04T16:09:53.014Z,1.08
2023-03-04T16:12:20.324Z,1.27
2023-03-04T16:14:49.931Z,1.00
2023-03-04T16:17:17.118Z,1.25
2023-03-04T16:19:44.282Z,1.50
2023-03-04T16:22:15.757Z,1.73
2023-03-04T16:24:43.128Z,1.45
2023-03-04T16:27:21.019Z,0.88
2023-03-04T16:29:48.681Z,0.52
2023-03-04T16:32:15.995Z,0.90
2023-03-04T16:34:43.215Z,1.05
2023-03-04T16:37:15.839Z,1.38
2023-03-04T16:39:46.064Z,0.88
2023-03-04T16:42:16.592Z,1.00
2023-03-04T16:44:43.843Z,1.25
2023-03-04T16:47:11.211Z,1.02
2023-03-04T16:49:38.674Z,1.30
2023-03-04T16:52:06.594Z,0.85
2023-03-04T16:54:35.009Z,1.77
2023-03-04T16:57:02.334Z,1.08
2023-03-04T16:59:29.927Z,1.40
2023-03-04T17:01:57.774Z,1.30
2023-03-04T17:04:25.128Z,1.45
2023-03-04T17:06:52.521Z,1.40
2023-03-04T17:09:19.665Z,1.20
2023-03-04T17:11:46.914Z,2.97
2023-03-04T17:14:14.083Z,1.75
2023-03-04T17:16:41.388Z,1.60
2023-03-04T17:19:08.592Z,0.93
2023-03-04T17:21:35.882Z,1.80
2023-03-04T17:24:03.367Z,1.02
2023-03-04T17:26:30.668Z,1.13
2023-03-04T17:28:57.810Z,0.90
2023-03-04T17:31:25.126Z,1.50
2023-03-04T17:33:52.467Z,1.60
2023-03-04T17:36:19.782Z,1.17
2023-03-04T17:38:47.264Z,1.40
2023-03-04T17:41:17.338Z,0.98
2023-03-04T17:43:45.604Z,1.45
2023-03-04T17:46:14.245Z,0.98
2023-03-04T17:48:41.865Z,0.88
2023-03-04T17:51:09.382Z,0.95
2023-03-04T17:53:36.920Z,1.15
2023-03-04T17:56:05.567Z,1.42
2023-03-04T17:58:33.996Z,1.13
2023-03-04T18:01:02.805Z,1.10
2023-03-04T18:03:30.077Z,1.30
2023-03-04T18:05:57.287Z,0.93
2023-03-04T18:08:24.558Z,1.23
2023-03-04T18:10:52.023Z,0.70
2023-03-04T18:13:20.414Z,1.40
2023-03-04T18:15:47.593Z,0.88
2023-03-04T18:18:21.829Z,0.93
2023-03-04T18:20:49.704Z,0.65
2023-03-04T18:23:17.014Z,1.42
2023-03-04T18:25:44.237Z,0.73
2023-03-04T18:28:11.518Z,1.60
2023-03-04T18:30:38.799Z,1.85
2023-03-04T18:33:16.760Z,1.05
2023-03-04T18:35:45.035Z,1.98
2023-03-04T18:38:37.361Z,1.23
2023-03-04T18:41:06.514Z,1.48
2023-03-04T18:43:36.223Z,2.50
2023-03-04T18:46:08.135Z,0.93
2023-03-04T18:48:38.696Z,1.35
2023-03-04T18:51:06.355Z,1.63
2023-03-04T18:53:33.641Z,1.65
2023-03-04T18:56:03.717Z,1.70
2023-03-04T18:58:35.433Z,2.08
2023-03-04T19:01:04.887Z,1.95
2023-03-04T19:03:34.660Z,1.88
2023-03-04T19:06:02.144Z,1.20
2023-03-04T19:08:29.571Z,1.27
2023-03-04T19:10:57.348Z,1.38
2023-03-04T19:13:24.559Z,1.20
2023-03-04T19:15:52.305Z,0.93
2023-03-04T19:18:19.578Z,1.50
2023-03-04T19:20:46.858Z,2.05
2023-03-04T19:23:14.665Z,1.40
2023-03-04T19:25:41.864Z,1.38
2023-03-04T19:28:09.479Z,0.73
2023-03-04T19:30:37.151Z,0.90
2023-03-04T19:33:05.389Z,1.25
2023-03-04T19:35:33.120Z,0.70
2023-03-04T19:38:01.216Z,2.33
2023-03-04T19:40:28.722Z,1.00
2023-03-04T19:42:57.798Z,1.00
2023-03-04T19:45:25.478Z,1.30
2023-03-04T19:47:53.158Z,1.55
2023-03-04T19:50:20.482Z,1.48
2023-03-04T19:52:47.799Z,1.75
2023-03-04T19:55:15.152Z,1.52
2023-03-04T19:57:42.504Z,1.70
2023-03-04T20:00:11.299Z,1.38
2023-03-04T20:02:38.682Z,1.70
2023-03-04T20:05:06.569Z,1.00
2023-03-04T20:07:33.870Z,1.38
2023-03-04T20:10:01.129Z,1.65
2023-03-04T20:12:28.535Z,1.73
2023-03-04T20:14:55.718Z,1.23
2023-03-04T20:17:22.970Z,1.98
2023-03-04T20:19:50.262Z,1.65
2023-03-04T20:22:17.465Z,1.98
2023-03-04T20:24:44.772Z,1.35
2023-03-04T20:27:14.714Z,1.40
2023-03-04T20:29:41.958Z,0.85
2023-03-04T20:32:09.752Z,0.95
2023-03-04T20:34:37.186Z,1.42
2023-03-04T20:37:04.425Z,1.42
2023-03-04T20:39:31.675Z,0.80
2023-03-04T20:41:59.320Z,1.02
2023-03-04T20:44:26.700Z,1.35
2023-03-04T20:46:53.902Z,1.60
2023-03-04T20:49:25.343Z,1.05
2023-03-04T20:52:00.155Z,1.45
2023-03-04T20:54:27.400Z,1.15
2023-03-04T20:56:55.815Z,2.15
2023-03-04T20:59:23.089Z,0.90
2023-03-04T21:01:50.822Z,1.20
2023-03-04T21:04:18.719Z,1.67
2023-03-04T21:06:47.368Z,0.93
2023-03-04T21:09:17.043Z,1.02
2023-03-04T21:11:44.304Z,1.33
2023-03-04T21:14:14.261Z,1.00
2023-03-04T21:16:43.096Z,0.80
2023-03-04T21:19:20.876Z,2.15
2023-03-04T21:21:49.482Z,1.02
2023-03-04T21:24:18.281Z,1.60
2023-03-04T21:26:47.492Z,1.30
2023-03-04T21:29:16.126Z,1.70
2023-03-04T21:31:44.927Z,0.98
2023-03-04T21:34:15.441Z,1.40
2023-03-04T21:36:42.627Z,1.65
2023-03-04T21:39:14.404Z,1.48
2023-03-04T21:41:41.636Z,1.30
2023-03-04T21:44:14.498Z,1.42
2023-03-04T21:46:50.233Z,1.30
2023-03-04T21:49:17.501Z,1.08
2023-03-04T21:51:44.912Z,1.23
2023-03-04T21:54:12.627Z,1.90
2023-03-04T21:56:40.272Z,1.60
2023-03-04T21:59:08.514Z,2.28
2023-03-04T22:01:35.742Z,1.13
2023-03-04T22:04:03.376Z,1.17
2023-03-04T22:06:33.402Z,1.15
2023-03-04T22:09:02.073Z,1.20
2023-03-04T22:11:29.970Z,1.02
2023-03-04T22:13:58.339Z,1.33
2023-03-04T22:16:25.948Z,1.00
2023-03-04T22:18:53.390Z,1.23
2023-03-04T22:21:21.647Z,1.27
2023-03-04T22:23:48.983Z,1.02
2023-03-04T22:26:17.534Z,1.65
2023-03-04T22:28:45.301Z,1.23
2023-03-04T22:31:16.839Z,1.65
2023-03-04T22:33:44.724Z,1.15
2023-03-04T22:36:12.476Z,1.52
2023-03-04T22:38:39.748Z,1.15
2023-03-04T22:41:12.974Z,1.30
2023-03-04T22:43:40.319Z,1.10
2023-03-04T22:46:14.310Z,1.42
2023-03-04T22:48:41.647Z,1.67
2023-03-04T22:51:09.522Z,1.70
2023-03-04T22:53:37.722Z,1.95
2023-03-04T22:56:05.521Z,1.88
2023-03-04T22:58:32.998Z,2.17
2023-03-04T23:01:00.618Z,0.75
2023-03-04T23:03:30.147Z,1.00
2023-03-04T23:06:01.626Z,0.77
2023-03-04T23:08:28.860Z,1.88
2023-03-04T23:10:57.279Z,2.03
2023-03-04T23:13:24.496Z,1.75
2023-03-04T23:15:51.722Z,0.70
2023-03-04T23:18:19.003Z,1.80
2023-03-04T23:20:46.203Z,1.65
2023-03-04T23:23:13.417Z,0.98
2023-03-04T23:25:40.810Z,0.88
2023-03-04T23:28:08.066Z,1.08
2023-03-04T23:30:35.449Z,1.40
2023-03-04T23:33:02.695Z,1.63
2023-03-04T23:35:30.420Z,1.30
2023-03-04T23:37:57.643Z,1.35
2023-03-04T23:40:24.942Z,0.73
2023-03-04T23:42:52.090Z,1.35
2023-03-04T23:45:19.486Z,1.02
2023-03-04T23:47:46.873Z,1.20
2023-03-04T23:50:15.980Z,0.85
2023-03-04T23:52:43.986Z,1.33
2023-03-04T23:55:15.862Z,0.63
2023-03-04T23:57:43.580Z,1.10
